createdAt,value
2022-09-13T00:02:26.695Z,100.00
2022-09-13T00:07:31.320Z,100.00
2022-09-13T00:12:37.197Z,100.00
2022-09-13T00:17:41.810Z,100.00
2022-09-13T00:22:46.078Z,100.00
2022-09-13T00:27:51.960Z,100.00
2022-09-13T00:32:56.746Z,100.00
2022-09-13T00:38:02.893Z,100.00
2022-09-13T00:43:18.114Z,100.00
2022-09-13T00:48:26.107Z,100.00
2022-09-13T00:53:32.863Z,100.00
2022-09-13T00:58:42.616Z,100.00
2022-09-13T01:03:47.636Z,100.00
2022-09-13T01:08:55.251Z,100.00
2022-09-13T01:14:02.248Z,100.00
2022-09-13T01:19:06.989Z,100.00
2022-09-13T01:24:39.586Z,100.00
2022-09-13T01:30:10.338Z,100.00
2022-09-13T01:35:23.078Z,100.00
2022-09-13T01:40:46.689Z,100.00
2022-09-13T01:46:02.359Z,100.00
2022-09-13T01:51:13.119Z,100.00
2022-09-13T01:56:25.487Z,100.00
2022-09-13T02:01:38.479Z,100.00
2022-09-13T02:06:48.185Z,100.00
2022-09-13T02:11:58.348Z,100.00
2022-09-13T02:17:08.073Z,100.00
2022-09-13T02:22:18.028Z,100.00
2022-09-13T02:27:28.183Z,100.00
2022-09-13T02:32:40.642Z,100.00
2022-09-13T02:37:50.528Z,100.00
2022-09-13T02:43:00.068Z,100.00
2022-09-13T02:48:12.987Z,100.00
2022-09-13T02:53:25.589Z,100.00
2022-09-13T02:58:36.793Z,100.00
2022-09-13T03:03:43.073Z,100.00
2022-09-13T03:08:47.447Z,100.00
2022-09-13T03:14:07.752Z,100.00
2022-09-13T03:19:46.210Z,100.00
2022-09-13T03:24:59.341Z,100.00
2022-09-13T03:30:07.437Z,100.00
2022-09-13T03:35:25.210Z,100.00
2022-09-13T03:40:41.031Z,100.00
2022-09-13T03:45:50.639Z,100.00
2022-09-13T03:50:57.436Z,100.00
2022-09-13T03:56:02.416Z,100.00
2022-09-13T04:01:06.880Z,100.00
2022-09-13T04:06:12.668Z,100.00
2022-09-13T04:11:17.121Z,100.00
2022-09-13T04:16:21.706Z,100.00
2022-09-13T04:21:28.162Z,100.00
2022-09-13T04:26:32.746Z,100.00
2022-09-13T04:31:37.646Z,100.00
2022-09-13T04:36:43.565Z,100.00
2022-09-13T04:41:50.808Z,100.00
2022-09-13T04:46:56.042Z,100.00
2022-09-13T04:52:01.733Z,100.00
2022-09-13T04:57:07.071Z,100.00
2022-09-13T05:02:11.563Z,100.00
2022-09-13T05:07:19.733Z,100.00
2022-09-13T05:12:23.841Z,100.00
2022-09-13T05:17:28.355Z,100.00
2022-09-13T05:22:34.012Z,100.00
2022-09-13T05:27:38.230Z,100.00
2022-09-13T05:32:43.018Z,100.00
2022-09-13T05:37:50.984Z,100.00
2022-09-13T05:42:55.464Z,100.00
2022-09-13T05:48:00.115Z,100.00
2022-09-13T05:53:06.640Z,100.00
2022-09-13T05:58:11.485Z,100.00
2022-09-13T06:03:15.836Z,100.00
2022-09-13T06:08:22.189Z,100.00
2022-09-13T06:13:27.679Z,100.00
2022-09-13T06:18:32.527Z,100.00
2022-09-13T06:23:38.286Z,100.00
2022-09-13T06:28:44.065Z,100.00
2022-09-13T06:33:50.174Z,100.00
2022-09-13T06:38:57.264Z,100.00
2022-09-13T06:44:03.374Z,100.00
2022-09-13T06:49:09.811Z,96.67
2022-09-13T06:54:16.020Z,100.00
2022-09-13T06:59:20.331Z,100.00
2022-09-13T07:04:25.308Z,89.85
2022-09-13T07:09:31.788Z,91.59
2022-09-13T07:14:35.965Z,93.34
2022-09-13T07:19:40.205Z,90.02
2022-09-13T07:24:46.110Z,84.06
2022-09-13T07:29:50.920Z,84.06
2022-09-13T07:34:55.042Z,77.96
2022-09-13T07:40:01.084Z,70.98
2022-09-13T07:45:07.044Z,74.55
2022-09-13T07:50:12.511Z,86.95
2022-09-13T07:55:18.276Z,76.22
2022-09-13T08:00:22.795Z,73.31
2022-09-13T08:05:27.287Z,76.29
2022-09-13T08:10:33.705Z,79.31
2022-09-13T08:15:38.088Z,80.22
2022-09-13T08:20:42.878Z,85.59
2022-09-13T08:25:48.868Z,84.30
2022-09-13T08:30:53.576Z,78.10
2022-09-13T08:35:58.915Z,78.96
2022-09-13T08:41:22.989Z,86.49
2022-09-13T08:46:30.443Z,84.33
2022-09-13T08:51:39.596Z,84.72
2022-09-13T08:56:52.692Z,86.82
2022-09-13T09:02:07.990Z,85.02
2022-09-13T09:07:17.054Z,84.62
2022-09-13T09:12:34.906Z,85.44
2022-09-13T09:17:48.232Z,84.01
2022-09-13T09:22:55.530Z,81.35
2022-09-13T09:28:03.385Z,79.42
2022-09-13T09:33:24.105Z,79.10
2022-09-13T09:38:41.425Z,83.27
2022-09-13T09:43:54.069Z,79.92
2022-09-13T09:49:28.316Z,76.82
2022-09-13T09:54:32.795Z,80.10
2022-09-13T09:59:38.651Z,79.31
2022-09-13T10:04:44.277Z,77.84
2022-09-13T10:10:02.823Z,78.73
2022-09-13T10:15:18.580Z,76.89
2022-09-13T10:20:27.908Z,78.09
2022-09-13T10:25:33.765Z,72.21
2022-09-13T10:30:43.347Z,74.89
2022-09-13T10:35:49.903Z,73.21
2022-09-13T10:40:54.882Z,71.58
2022-09-13T10:46:03.895Z,68.30
2022-09-13T12:39:31.493Z,69.99
2022-09-13T12:44:49.853Z,70.99
2022-09-13T12:50:43.527Z,69.97
2022-09-13T12:56:05.006Z,70.93
2022-09-13T13:01:16.487Z,71.61
2022-09-13T13:06:29.948Z,71.12
2022-09-13T13:11:47.937Z,71.74
2022-09-13T13:16:53.848Z,74.93
2022-09-13T13:21:58.832Z,74.73
2022-09-13T13:27:37.294Z,76.47
2022-09-13T13:33:07.162Z,77.65
2022-09-13T13:38:18.862Z,80.65
2022-09-13T13:43:34.664Z,79.85
2022-09-13T13:48:42.360Z,80.26
2022-09-13T13:53:59.756Z,80.32
2022-09-13T13:59:15.485Z,78.37
2022-09-13T14:04:48.561Z,79.28
2022-09-13T14:10:02.912Z,81.76
2022-09-13T14:15:29.875Z,80.60
2022-09-13T14:20:33.976Z,81.18
2022-09-13T14:25:38.935Z,80.71
2022-09-13T14:30:47.963Z,78.93
2022-09-13T14:36:00.749Z,77.80
2022-09-13T14:41:15.430Z,75.65
2022-09-13T14:46:27.222Z,75.92
2022-09-13T14:51:38.846Z,77.74
2022-09-13T14:56:47.608Z,79.16
2022-09-13T15:01:54.612Z,79.95
2022-09-13T15:07:10.984Z,80.97
2022-09-13T15:12:26.763Z,80.39
2022-09-13T15:17:32.805Z,80.79
2022-09-13T15:22:37.647Z,79.38
2022-09-13T15:27:48.098Z,79.66
2022-09-13T15:33:07.010Z,80.33
2022-09-13T15:38:24.616Z,80.19
2022-09-13T15:43:30.254Z,80.38
2022-09-13T15:48:37.564Z,81.89
2022-09-13T15:53:44.825Z,83.99
2022-09-13T15:58:49.791Z,84.24
2022-09-13T16:03:56.123Z,85.60
2022-09-13T16:09:00.793Z,86.46
2022-09-13T16:14:04.850Z,86.35
2022-09-13T16:19:15.061Z,88.09
2022-09-13T16:24:19.323Z,89.27
2022-09-13T16:29:24.227Z,89.77
2022-09-13T16:34:29.952Z,91.61
2022-09-13T16:39:34.713Z,91.93
2022-09-13T16:44:39.169Z,92.98
2022-09-13T16:49:46.404Z,93.57
2022-09-13T16:54:52.674Z,95.54
2022-09-13T16:59:58.777Z,95.04
2022-09-13T17:05:05.630Z,96.41
2022-09-13T17:10:12.729Z,98.17
2022-09-13T17:15:17.450Z,97.73
2022-09-13T17:20:23.602Z,98.07
2022-09-13T17:25:28.259Z,99.97
2022-09-13T17:30:32.609Z,100.00
2022-09-13T17:35:38.739Z,100.00
2022-09-13T17:40:43.596Z,100.00
2022-09-13T17:45:47.808Z,100.00
2022-09-13T17:50:53.526Z,100.00
2022-09-13T17:55:58.216Z,100.00
2022-09-13T18:01:04.691Z,100.00
2022-09-13T18:06:14.426Z,100.00
2022-09-13T19:38:00.993Z,100.00
2022-09-13T19:43:05.639Z,100.00
2022-09-13T19:48:37.822Z,100.00
2022-09-13T19:53:55.931Z,100.00
2022-09-13T19:59:02.697Z,100.00
2022-09-13T20:04:09.039Z,100.00
2022-09-13T20:09:17.487Z,100.00
2022-09-13T20:14:22.662Z,100.00
2022-09-13T20:19:41.544Z,100.00
2022-09-13T20:24:50.122Z,100.00
2022-09-13T20:29:56.124Z,100.00
2022-09-13T20:35:01.394Z,100.00
2022-09-13T20:40:09.931Z,100.00
2022-09-13T20:45:17.113Z,100.00
2022-09-13T20:50:21.506Z,100.00
2022-09-13T20:55:28.008Z,100.00
2022-09-13T21:00:32.975Z,100.00
2022-09-13T21:05:38.905Z,100.00
2022-09-13T21:10:44.757Z,100.00
2022-09-13T21:15:50.862Z,100.00
2022-09-13T21:20:59.483Z,100.00
2022-09-13T21:26:06.516Z,100.00
2022-09-13T21:31:19.503Z,100.00
2022-09-13T21:36:27.121Z,100.00
2022-09-13T21:41:33.505Z,100.00
2022-09-13T21:46:39.874Z,100.00
2022-09-13T21:51:47.055Z,100.00
2022-09-13T21:56:55.289Z,100.00
2022-09-13T22:02:00.571Z,100.00
2022-09-13T22:07:06.300Z,100.00
2022-09-13T22:12:12.268Z,100.00
2022-09-13T22:17:17.244Z,100.00
2022-09-13T22:22:21.313Z,100.00
2022-09-13T22:27:27.299Z,100.00
2022-09-13T22:32:31.718Z,100.00
2022-09-13T22:37:36.489Z,100.00
2022-09-13T22:42:42.611Z,100.00
2022-09-13T22:47:47.063Z,100.00
2022-09-13T22:52:52.072Z,100.00
2022-09-13T22:57:57.964Z,100.00
2022-09-13T23:03:02.312Z,100.00
2022-09-13T23:08:07.405Z,100.00
2022-09-13T23:13:13.488Z,100.00
2022-09-13T23:18:18.491Z,100.00
2022-09-13T23:23:23.044Z,100.00
2022-09-13T23:28:31.432Z,100.00
2022-09-13T23:33:35.676Z,100.00
2022-09-13T23:38:39.965Z,100.00
2022-09-13T23:43:46.537Z,100.00
2022-09-13T23:48:51.920Z,100.00
2022-09-13T23:53:58.548Z,100.00
2022-09-13T23:59:05.822Z,100.00
